Aérodrome :
LOGIN :

S'inscrire | Disclaimer

   EN    FR    IT 

 










Légende :    VFR   VFR Marginal   IFR   IFR Intensif   IFR Très Intensif
Visi : 
Plafond : 
>= 8 km
>= 3000ft
5 à 8 km
1000 à 3000 ft
1500m à 5 km
500 à 1000 ft
800 à 1500m
200 à 500 ft
< 800m
< 200 ft
Symboles :   Orages  Brouillard  Fortes neiges  Fortes précipitations  Vent > 20 kt
SIGMETs :   Divers  Orages  Givrage  Turbulence  Onde Orograph.  Cendres Volcan.






- Altitude de l'aérodrome : 287 ft


LFRL - Lanveoc Poulmic

DERNIER METAR :
  • 121130Z AUTO 19012KT CAVOK 18/13 Q1031 TEMPO BKN008

METARs EXPIRÉS :
  • 121100Z AUTO 18012KT 9999 FEW009 18/14 Q1032 TEMPO BKN008
  • 121030Z AUTO 17010KT 140V210 CAVOK 18/13 Q1032 TEMPO BKN008
  • 121000Z AUTO 18011KT CAVOK 17/12 Q1032 NOSIG
  • 120930Z AUTO 19013KT CAVOK 16/12 Q1031 NOSIG
  • 120900Z AUTO 17009KT 130V200 CAVOK 16/12 Q1031 NOSIG
  • 120830Z AUTO 17010KT CAVOK 15/11 Q1032 NOSIG
  • 120800Z AUTO 17008KT CAVOK 14/11 Q1031 NOSIG
  • 120730Z AUTO 17009KT CAVOK 13/10 Q1031 NOSIG
  • 120700Z AUTO 17006KT CAVOK 12/10 Q1031 NOSIG

TAF TAF LFRL
Valide du 12 à 12h jusqu'au 13 à 12h UTC


121100Z 1212/1312 19010KT 9999 FEW009
TEMPO 1212/1215 BKN008
TEMPO 1219/1311 3000 BR BKN002
PROB40
TEMPO 1219/1309 0500 FG VV///



MET'MAP, la Météo Aéronautique d'un coup d'oeil ! - Copyright ORBIFLY Décembre 2007 - Disclaimer

ORBIFLY MET'MAP TEAM :

Programmation & Développement : Alexandra Zaïnal
Sur une idée originale de : Baudouin d'Aumeries
Soutien technique & logistique : Manuel Goepfert
Assistance : Marc-Olivier Méhu




SOURCES & CREDITS :

   NOAA